Startpagina
METAR-TAF:

METAR-TAF

Vliegvelden :

Productieplatform

Euro, Nederland

breedte: 51-59-52N, lengte: 3-16-30E, hoogte: 18 m

Actueel weer

Dit bericht is 40 minuten geleden gemaakt, om 22:55 UTC
Wind 15 kt uit het zuidzuidoosten
Temperatuur 12°C
Vochtigheid 76%
Druk 1023 hPa
Zicht 10 km of meer

METAR: EHSA 142255Z AUTO 16015KT 9999 ///////// 12/08 Q1023 W11/H8

Tijdstip: 00:35 (23:35 UTC)


TAF: ontbreekt

Waarnemingen en weersverwachtingen van meer dan 4000 vliegvelden (METAR en TAF).

De beschikbare stations zijn de gele en rode punten op de kaart.

Ga met uw muis naar het station om de naam te zien.

Klik dan om waarnemingen en weersverwachtingen te zien.

kaart wijzigen: klik op de groene knoppen met een zwart kruis om in te zoomen, op de groene knop met een streepje om uit te zoomen of op de groene pijlen voor aangrenzende kaarten.


METAR-TAF: